Terminal Aerodrome Forecast
Issued by NWS

Home | Current Version | Previous Version | Text Only | Print | Product List | Glossary On
Versions: 1 2 3 4 5 6 7 8 9 10 11 12 13 14 15 16
202
FTUS45 KRIW 120529
TAFJAC
TAF
KJAC 120529Z 1206/1306 VRB05KT P6SM VCSH SCT025 BKN040
      TEMPO 1206/1210 5SM -SHSN BKN024
     FM121400 VRB05KT P6SM SCT050 BKN080
     FM121800 VRB05KT P6SM BKN250
     FM130500 36006KT P6SM FEW080 BKN250
      AMD LTD TO CLD VIS AND WIND=

USA.gov is the U.S. government's official web portal to all federal, state and local government web resources and services.